sensor_id;sensor_type;location;lat;lon;timestamp;P1;durP1;ratioP1;P2;durP2;ratioP2
23747;SDS011;12054;53.662;10.126;2022-10-16T00:00:28;6.78;;;5.25;;
23747;SDS011;12054;53.662;10.126;2022-10-16T00:02:54;8.38;;;5.43;;
23747;SDS011;12054;53.662;10.126;2022-10-16T00:05:20;7.20;;;5.30;;
23747;SDS011;12054;53.662;10.126;2022-10-16T00:07:46;9.80;;;6.03;;
23747;SDS011;12054;53.662;10.126;2022-10-16T00:10:11;9.40;;;6.68;;
23747;SDS011;12054;53.662;10.126;2022-10-16T00:12:37;10.98;;;7.25;;
23747;SDS011;12054;53.662;10.126;2022-10-16T00:15:02;13.60;;;8.70;;
23747;SDS011;12054;53.662;10.126;2022-10-16T00:17:29;11.32;;;7.97;;
23747;SDS011;12054;53.662;10.126;2022-10-16T00:19:54;11.45;;;7.00;;
23747;SDS011;12054;53.662;10.126;2022-10-16T00:22:20;10.68;;;6.47;;
23747;SDS011;12054;53.662;10.126;2022-10-16T00:24:45;10.45;;;5.90;;
23747;SDS011;12054;53.662;10.126;2022-10-16T00:27:11;9.23;;;5.53;;
23747;SDS011;12054;53.662;10.126;2022-10-16T00:29:37;11.93;;;5.22;;
23747;SDS011;12054;53.662;10.126;2022-10-16T00:32:03;6.22;;;4.88;;
23747;SDS011;12054;53.662;10.126;2022-10-16T00:34:28;6.72;;;4.20;;
23747;SDS011;12054;53.662;10.126;2022-10-16T00:36:54;9.15;;;4.68;;
23747;SDS011;12054;53.662;10.126;2022-10-16T00:39:19;6.88;;;4.45;;
23747;SDS011;12054;53.662;10.126;2022-10-16T00:41:45;5.47;;;4.00;;
23747;SDS011;12054;53.662;10.126;2022-10-16T00:47:11;8.90;;;3.85;;
23747;SDS011;12054;53.662;10.126;2022-10-16T00:49:42;4.97;;;3.30;;
23747;SDS011;12054;53.662;10.126;2022-10-16T00:52:08;6.97;;;3.25;;
23747;SDS011;12054;53.662;10.126;2022-10-16T00:54:35;4.88;;;2.88;;
23747;SDS011;12054;53.662;10.126;2022-10-16T00:57:05;6.63;;;2.95;;
23747;SDS011;12054;53.662;10.126;2022-10-16T00:59:41;4.30;;;2.95;;
23747;SDS011;12054;53.662;10.126;2022-10-16T01:02:09;3.22;;;2.63;;
23747;SDS011;12054;53.662;10.126;2022-10-16T01:07:30;2.55;;;2.05;;
23747;SDS011;12054;53.662;10.126;2022-10-16T01:12:50;4.50;;;2.00;;
23747;SDS011;12054;53.662;10.126;2022-10-16T01:15:18;5.55;;;2.10;;
23747;SDS011;12054;53.662;10.126;2022-10-16T01:17:53;3.08;;;1.90;;
23747;SDS011;12054;53.662;10.126;2022-10-16T01:28:52;3.60;;;2.10;;
23747;SDS011;12054;53.662;10.126;2022-10-16T01:31:24;4.25;;;2.00;;
23747;SDS011;12054;53.662;10.126;2022-10-16T01:33:56;3.83;;;1.73;;
23747;SDS011;12054;53.662;10.126;2022-10-16T01:36:35;2.75;;;1.70;;
23747;SDS011;12054;53.662;10.126;2022-10-16T01:39:04;2.50;;;1.67;;
23747;SDS011;12054;53.662;10.126;2022-10-16T01:41:35;3.25;;;1.80;;
23747;SDS011;12054;53.662;10.126;2022-10-16T01:44:06;4.53;;;1.90;;
23747;SDS011;12054;53.662;10.126;2022-10-16T01:46:36;4.28;;;1.80;;
23747;SDS011;12054;53.662;10.126;2022-10-16T01:49:04;2.17;;;1.70;;
23747;SDS011;12054;53.662;10.126;2022-10-16T01:51:31;2.50;;;1.50;;
23747;SDS011;12054;53.662;10.126;2022-10-16T01:53:59;3.78;;;2.13;;
23747;SDS011;12054;53.662;10.126;2022-10-16T01:56:26;3.70;;;1.98;;
23747;SDS011;12054;53.662;10.126;2022-10-16T01:59:09;3.88;;;2.03;;
23747;SDS011;12054;53.662;10.126;2022-10-16T02:01:38;3.92;;;2.13;;
23747;SDS011;12054;53.662;10.126;2022-10-16T02:04:13;3.10;;;2.03;;
23747;SDS011;12054;53.662;10.126;2022-10-16T02:06:45;4.65;;;1.90;;
23747;SDS011;12054;53.662;10.126;2022-10-16T02:09:11;4.30;;;1.80;;
23747;SDS011;12054;53.662;10.126;2022-10-16T02:11:37;2.72;;;1.60;;
23747;SDS011;12054;53.662;10.126;2022-10-16T02:14:04;3.75;;;2.05;;
23747;SDS011;12054;53.662;10.126;2022-10-16T02:16:34;3.38;;;1.45;;
23747;SDS011;12054;53.662;10.126;2022-10-16T02:19:02;2.22;;;1.65;;
23747;SDS011;12054;53.662;10.126;2022-10-16T02:21:29;3.28;;;1.70;;
23747;SDS011;12054;53.662;10.126;2022-10-16T02:24:37;4.25;;;2.30;;
23747;SDS011;12054;53.662;10.126;2022-10-16T02:27:17;3.72;;;1.80;;
23747;SDS011;12054;53.662;10.126;2022-10-16T02:29:55;2.75;;;1.80;;
23747;SDS011;12054;53.662;10.126;2022-10-16T02:32:28;2.92;;;1.88;;
23747;SDS011;12054;53.662;10.126;2022-10-16T02:34:56;5.80;;;1.63;;
23747;SDS011;12054;53.662;10.126;2022-10-16T02:37:28;3.17;;;1.83;;
23747;SDS011;12054;53.662;10.126;2022-10-16T02:39:55;5.72;;;2.70;;
23747;SDS011;12054;53.662;10.126;2022-10-16T02:42:26;2.20;;;1.48;;
23747;SDS011;12054;53.662;10.126;2022-10-16T02:44:53;3.00;;;1.65;;
23747;SDS011;12054;53.662;10.126;2022-10-16T02:47:21;6.00;;;2.90;;
23747;SDS011;12054;53.662;10.126;2022-10-16T02:49:46;4.22;;;2.00;;
23747;SDS011;12054;53.662;10.126;2022-10-16T02:52:12;3.45;;;1.77;;
23747;SDS011;12054;53.662;10.126;2022-10-16T02:54:37;4.38;;;1.80;;
23747;SDS011;12054;53.662;10.126;2022-10-16T02:57:03;3.03;;;1.63;;
23747;SDS011;12054;53.662;10.126;2022-10-16T02:59:28;3.35;;;1.63;;
23747;SDS011;12054;53.662;10.126;2022-10-16T03:01:54;2.13;;;1.63;;
23747;SDS011;12054;53.662;10.126;2022-10-16T03:04:19;3.35;;;1.73;;
23747;SDS011;12054;53.662;10.126;2022-10-16T03:06:45;3.35;;;2.22;;
23747;SDS011;12054;53.662;10.126;2022-10-16T03:09:10;3.28;;;1.60;;
23747;SDS011;12054;53.662;10.126;2022-10-16T03:11:36;1.80;;;1.48;;
23747;SDS011;12054;53.662;10.126;2022-10-16T03:14:02;3.08;;;1.63;;
23747;SDS011;12054;53.662;10.126;2022-10-16T03:16:45;3.50;;;1.52;;
23747;SDS011;12054;53.662;10.126;2022-10-16T03:19:10;3.38;;;1.80;;
23747;SDS011;12054;53.662;10.126;2022-10-16T03:21:36;2.72;;;1.67;;
23747;SDS011;12054;53.662;10.126;2022-10-16T03:24:02;4.13;;;2.05;;
23747;SDS011;12054;53.662;10.126;2022-10-16T03:26:28;4.53;;;2.22;;
23747;SDS011;12054;53.662;10.126;2022-10-16T03:28:54;3.47;;;2.55;;
23747;SDS011;12054;53.662;10.126;2022-10-16T03:31:19;3.80;;;2.40;;
23747;SDS011;12054;53.662;10.126;2022-10-16T03:33:45;2.80;;;2.40;;
23747;SDS011;12054;53.662;10.126;2022-10-16T03:36:10;4.35;;;2.70;;
23747;SDS011;12054;53.662;10.126;2022-10-16T03:38:36;4.32;;;2.63;;
23747;SDS011;12054;53.662;10.126;2022-10-16T03:41:01;5.43;;;3.03;;
23747;SDS011;12054;53.662;10.126;2022-10-16T03:43:27;3.17;;;2.50;;
23747;SDS011;12054;53.662;10.126;2022-10-16T03:45:52;6.20;;;2.60;;
23747;SDS011;12054;53.662;10.126;2022-10-16T03:48:21;3.05;;;2.30;;
23747;SDS011;12054;53.662;10.126;2022-10-16T03:50:46;5.57;;;2.30;;
23747;SDS011;12054;53.662;10.126;2022-10-16T03:53:13;3.95;;;2.35;;
23747;SDS011;12054;53.662;10.126;2022-10-16T03:55:43;4.63;;;2.40;;
23747;SDS011;12054;53.662;10.126;2022-10-16T03:58:09;4.03;;;2.13;;
23747;SDS011;12054;53.662;10.126;2022-10-16T04:00:35;3.33;;;2.00;;
23747;SDS011;12054;53.662;10.126;2022-10-16T04:03:00;6.53;;;2.38;;
23747;SDS011;12054;53.662;10.126;2022-10-16T04:05:26;3.22;;;2.35;;
23747;SDS011;12054;53.662;10.126;2022-10-16T04:07:52;4.30;;;2.10;;
23747;SDS011;12054;53.662;10.126;2022-10-16T04:10:17;3.28;;;2.38;;
23747;SDS011;12054;53.662;10.126;2022-10-16T04:12:43;4.30;;;2.15;;
23747;SDS011;12054;53.662;10.126;2022-10-16T04:15:09;4.32;;;1.80;;
23747;SDS011;12054;53.662;10.126;2022-10-16T04:17:35;5.63;;;2.10;;
23747;SDS011;12054;53.662;10.126;2022-10-16T04:20:01;3.95;;;1.75;;
23747;SDS011;12054;53.662;10.126;2022-10-16T04:22:26;5.45;;;2.00;;
23747;SDS011;12054;53.662;10.126;2022-10-16T04:24:52;3.97;;;1.98;;
23747;SDS011;12054;53.662;10.126;2022-10-16T04:27:17;4.93;;;1.73;;
23747;SDS011;12054;53.662;10.126;2022-10-16T04:29:43;4.65;;;2.20;;
23747;SDS011;12054;53.662;10.126;2022-10-16T04:32:09;4.10;;;1.88;;
23747;SDS011;12054;53.662;10.126;2022-10-16T04:34:34;2.25;;;1.50;;
23747;SDS011;12054;53.662;10.126;2022-10-16T04:37:00;2.33;;;1.98;;
23747;SDS011;12054;53.662;10.126;2022-10-16T04:39:25;3.78;;;1.98;;
23747;SDS011;12054;53.662;10.126;2022-10-16T04:41:51;4.82;;;2.22;;
23747;SDS011;12054;53.662;10.126;2022-10-16T04:44:16;3.65;;;1.90;;
23747;SDS011;12054;53.662;10.126;2022-10-16T04:46:42;3.25;;;2.38;;
23747;SDS011;12054;53.662;10.126;2022-10-16T04:49:09;4.60;;;1.85;;
23747;SDS011;12054;53.662;10.126;2022-10-16T04:51:34;4.53;;;2.08;;
23747;SDS011;12054;53.662;10.126;2022-10-16T04:54:00;6.57;;;1.92;;
23747;SDS011;12054;53.662;10.126;2022-10-16T04:56:25;4.68;;;2.00;;
23747;SDS011;12054;53.662;10.126;2022-10-16T04:58:51;3.38;;;1.70;;
23747;SDS011;12054;53.662;10.126;2022-10-16T05:01:16;3.15;;;1.90;;
23747;SDS011;12054;53.662;10.126;2022-10-16T05:03:42;4.07;;;1.90;;
23747;SDS011;12054;53.662;10.126;2022-10-16T05:06:07;3.92;;;1.90;;
23747;SDS011;12054;53.662;10.126;2022-10-16T05:08:33;4.47;;;1.80;;
23747;SDS011;12054;53.662;10.126;2022-10-16T05:10:59;3.70;;;2.00;;
23747;SDS011;12054;53.662;10.126;2022-10-16T05:13:25;3.00;;;1.63;;
23747;SDS011;12054;53.662;10.126;2022-10-16T05:15:50;4.63;;;1.90;;
23747;SDS011;12054;53.662;10.126;2022-10-16T05:18:16;5.22;;;1.77;;
23747;SDS011;12054;53.662;10.126;2022-10-16T05:20:42;5.22;;;2.40;;
23747;SDS011;12054;53.662;10.126;2022-10-16T05:23:07;3.28;;;1.63;;
23747;SDS011;12054;53.662;10.126;2022-10-16T05:25:35;3.97;;;2.00;;
23747;SDS011;12054;53.662;10.126;2022-10-16T05:28:00;5.15;;;1.83;;
23747;SDS011;12054;53.662;10.126;2022-10-16T05:30:26;4.45;;;1.73;;
23747;SDS011;12054;53.662;10.126;2022-10-16T05:32:52;3.30;;;1.63;;
23747;SDS011;12054;53.662;10.126;2022-10-16T05:35:18;4.15;;;1.83;;
23747;SDS011;12054;53.662;10.126;2022-10-16T05:37:44;5.70;;;2.20;;
23747;SDS011;12054;53.662;10.126;2022-10-16T05:40:10;3.72;;;2.05;;
23747;SDS011;12054;53.662;10.126;2022-10-16T05:42:35;4.50;;;2.00;;
23747;SDS011;12054;53.662;10.126;2022-10-16T05:45:02;6.25;;;2.08;;
23747;SDS011;12054;53.662;10.126;2022-10-16T05:47:28;4.30;;;2.05;;
23747;SDS011;12054;53.662;10.126;2022-10-16T05:49:57;4.38;;;2.13;;
23747;SDS011;12054;53.662;10.126;2022-10-16T05:52:22;4.80;;;2.13;;
23747;SDS011;12054;53.662;10.126;2022-10-16T05:54:48;5.15;;;2.53;;
23747;SDS011;12054;53.662;10.126;2022-10-16T06:00:11;6.25;;;2.42;;
23747;SDS011;12054;53.662;10.126;2022-10-16T06:02:36;4.60;;;2.75;;
23747;SDS011;12054;53.662;10.126;2022-10-16T06:05:02;3.75;;;2.33;;
23747;SDS011;12054;53.662;10.126;2022-10-16T06:07:28;4.13;;;2.08;;
23747;SDS011;12054;53.662;10.126;2022-10-16T06:09:53;4.15;;;2.17;;
23747;SDS011;12054;53.662;10.126;2022-10-16T06:12:21;4.32;;;2.28;;
23747;SDS011;12054;53.662;10.126;2022-10-16T06:14:46;4.50;;;2.15;;
23747;SDS011;12054;53.662;10.126;2022-10-16T06:17:12;5.88;;;2.40;;
23747;SDS011;12054;53.662;10.126;2022-10-16T06:19:39;5.32;;;2.53;;
23747;SDS011;12054;53.662;10.126;2022-10-16T06:22:04;4.25;;;2.33;;
23747;SDS011;12054;53.662;10.126;2022-10-16T06:24:31;6.65;;;2.60;;
23747;SDS011;12054;53.662;10.126;2022-10-16T06:26:56;4.57;;;2.58;;
23747;SDS011;12054;53.662;10.126;2022-10-16T06:29:22;6.32;;;2.60;;
23747;SDS011;12054;53.662;10.126;2022-10-16T06:31:47;4.78;;;2.50;;
23747;SDS011;12054;53.662;10.126;2022-10-16T06:34:14;5.88;;;2.30;;
23747;SDS011;12054;53.662;10.126;2022-10-16T06:36:39;4.82;;;2.80;;
23747;SDS011;12054;53.662;10.126;2022-10-16T06:39:06;7.18;;;2.47;;
23747;SDS011;12054;53.662;10.126;2022-10-16T06:41:32;4.90;;;2.42;;
23747;SDS011;12054;53.662;10.126;2022-10-16T06:43:58;3.45;;;2.10;;
23747;SDS011;12054;53.662;10.126;2022-10-16T06:46:24;3.78;;;2.67;;
23747;SDS011;12054;53.662;10.126;2022-10-16T06:48:51;4.38;;;2.38;;
23747;SDS011;12054;53.662;10.126;2022-10-16T06:51:18;4.10;;;2.45;;
23747;SDS011;12054;53.662;10.126;2022-10-16T06:53:54;3.88;;;2.42;;
23747;SDS011;12054;53.662;10.126;2022-10-16T06:56:24;4.25;;;2.50;;
23747;SDS011;12054;53.662;10.126;2022-10-16T06:58:51;6.55;;;2.50;;
23747;SDS011;12054;53.662;10.126;2022-10-16T07:01:19;5.68;;;2.58;;
23747;SDS011;12054;53.662;10.126;2022-10-16T07:03:46;6.75;;;2.70;;
23747;SDS011;12054;53.662;10.126;2022-10-16T07:06:12;5.35;;;2.80;;
23747;SDS011;12054;53.662;10.126;2022-10-16T07:08:40;7.57;;;3.65;;
23747;SDS011;12054;53.662;10.126;2022-10-16T07:11:11;5.40;;;2.63;;
23747;SDS011;12054;53.662;10.126;2022-10-16T07:13:39;5.50;;;2.63;;
23747;SDS011;12054;53.662;10.126;2022-10-16T07:16:06;5.15;;;2.58;;
23747;SDS011;12054;53.662;10.126;2022-10-16T07:18:33;6.75;;;2.30;;
23747;SDS011;12054;53.662;10.126;2022-10-16T07:21:18;3.65;;;2.40;;
23747;SDS011;12054;53.662;10.126;2022-10-16T07:23:45;3.80;;;2.13;;
23747;SDS011;12054;53.662;10.126;2022-10-16T07:26:16;5.25;;;2.50;;
23747;SDS011;12054;53.662;10.126;2022-10-16T07:28:42;5.20;;;2.50;;
23747;SDS011;12054;53.662;10.126;2022-10-16T07:31:09;5.80;;;2.17;;
23747;SDS011;12054;53.662;10.126;2022-10-16T07:33:38;4.63;;;2.35;;
23747;SDS011;12054;53.662;10.126;2022-10-16T07:36:07;3.67;;;2.50;;
23747;SDS011;12054;53.662;10.126;2022-10-16T07:38:33;4.10;;;2.45;;
23747;SDS011;12054;53.662;10.126;2022-10-16T07:40:59;7.40;;;2.50;;
23747;SDS011;12054;53.662;10.126;2022-10-16T07:43:30;4.65;;;2.50;;
23747;SDS011;12054;53.662;10.126;2022-10-16T07:46:00;5.53;;;2.60;;
23747;SDS011;12054;53.662;10.126;2022-10-16T07:48:29;4.22;;;2.47;;
23747;SDS011;12054;53.662;10.126;2022-10-16T07:51:00;3.72;;;2.30;;
23747;SDS011;12054;53.662;10.126;2022-10-16T07:53:28;3.50;;;2.30;;
23747;SDS011;12054;53.662;10.126;2022-10-16T07:55:57;3.65;;;2.10;;
23747;SDS011;12054;53.662;10.126;2022-10-16T07:58:27;2.92;;;2.00;;
23747;SDS011;12054;53.662;10.126;2022-10-16T08:00:54;2.38;;;1.92;;
23747;SDS011;12054;53.662;10.126;2022-10-16T08:03:20;6.43;;;2.17;;
23747;SDS011;12054;53.662;10.126;2022-10-16T08:05:46;3.70;;;2.30;;
23747;SDS011;12054;53.662;10.126;2022-10-16T08:08:13;6.85;;;2.60;;
23747;SDS011;12054;53.662;10.126;2022-10-16T08:10:39;3.78;;;2.10;;
23747;SDS011;12054;53.662;10.126;2022-10-16T08:13:05;4.38;;;2.00;;
23747;SDS011;12054;53.662;10.126;2022-10-16T08:15:31;2.80;;;1.98;;
23747;SDS011;12054;53.662;10.126;2022-10-16T08:17:57;3.08;;;1.98;;
23747;SDS011;12054;53.662;10.126;2022-10-16T08:20:24;4.40;;;2.20;;
23747;SDS011;12054;53.662;10.126;2022-10-16T08:22:51;5.18;;;2.40;;
23747;SDS011;12054;53.662;10.126;2022-10-16T08:25:16;3.08;;;2.03;;
23747;SDS011;12054;53.662;10.126;2022-10-16T08:27:42;3.92;;;1.77;;
23747;SDS011;12054;53.662;10.126;2022-10-16T08:30:08;5.63;;;2.00;;
23747;SDS011;12054;53.662;10.126;2022-10-16T08:32:36;2.20;;;1.73;;
23747;SDS011;12054;53.662;10.126;2022-10-16T08:35:01;3.75;;;1.95;;
23747;SDS011;12054;53.662;10.126;2022-10-16T08:37:30;5.88;;;1.83;;
23747;SDS011;12054;53.662;10.126;2022-10-16T08:39:57;3.63;;;1.88;;
23747;SDS011;12054;53.662;10.126;2022-10-16T08:45:43;2.85;;;1.80;;
23747;SDS011;12054;53.662;10.126;2022-10-16T08:48:50;3.38;;;2.00;;
23747;SDS011;12054;53.662;10.126;2022-10-16T08:51:19;3.90;;;2.00;;
23747;SDS011;12054;53.662;10.126;2022-10-16T08:53:53;2.50;;;1.88;;
23747;SDS011;12054;53.662;10.126;2022-10-16T08:56:30;2.78;;;1.73;;
23747;SDS011;12054;53.662;10.126;2022-10-16T08:58:57;3.85;;;1.92;;
23747;SDS011;12054;53.662;10.126;2022-10-16T09:01:24;3.33;;;1.80;;
23747;SDS011;12054;53.662;10.126;2022-10-16T09:06:46;4.82;;;1.70;;
23747;SDS011;12054;53.662;10.126;2022-10-16T09:10:09;3.40;;;1.60;;
23747;SDS011;12054;53.662;10.126;2022-10-16T09:23:17;5.82;;;1.75;;
23747;SDS011;12054;53.662;10.126;2022-10-16T09:25:55;3.70;;;1.60;;
23747;SDS011;12054;53.662;10.126;2022-10-16T09:28:22;1.90;;;1.45;;
23747;SDS011;12054;53.662;10.126;2022-10-16T09:30:48;4.55;;;1.40;;
23747;SDS011;12054;53.662;10.126;2022-10-16T09:33:24;2.45;;;1.50;;
23747;SDS011;12054;53.662;10.126;2022-10-16T09:35:54;3.28;;;1.50;;
23747;SDS011;12054;53.662;10.126;2022-10-16T09:40:54;2.03;;;1.42;;
23747;SDS011;12054;53.662;10.126;2022-10-16T09:46:27;3.10;;;1.27;;
23747;SDS011;12054;53.662;10.126;2022-10-16T09:49:00;2.28;;;1.35;;
23747;SDS011;12054;53.662;10.126;2022-10-16T09:51:33;3.72;;;1.60;;
23747;SDS011;12054;53.662;10.126;2022-10-16T09:56:32;2.88;;;1.23;;
23747;SDS011;12054;53.662;10.126;2022-10-16T09:59:01;3.80;;;1.10;;
23747;SDS011;12054;53.662;10.126;2022-10-16T10:01:46;4.10;;;1.10;;
23747;SDS011;12054;53.662;10.126;2022-10-16T10:04:12;4.10;;;1.20;;
23747;SDS011;12054;53.662;10.126;2022-10-16T10:06:51;3.30;;;1.25;;
23747;SDS011;12054;53.662;10.126;2022-10-16T10:14:15;3.08;;;1.02;;
23747;SDS011;12054;53.662;10.126;2022-10-16T10:16:47;4.18;;;1.50;;
23747;SDS011;12054;53.662;10.126;2022-10-16T10:19:19;2.67;;;1.10;;
23747;SDS011;12054;53.662;10.126;2022-10-16T10:21:47;3.50;;;1.30;;
23747;SDS011;12054;53.662;10.126;2022-10-16T10:24:14;2.13;;;1.23;;
23747;SDS011;12054;53.662;10.126;2022-10-16T10:26:47;3.20;;;0.98;;
23747;SDS011;12054;53.662;10.126;2022-10-16T10:32:17;3.63;;;1.20;;
23747;SDS011;12054;53.662;10.126;2022-10-16T10:34:55;3.70;;;1.65;;
23747;SDS011;12054;53.662;10.126;2022-10-16T10:46:28;2.55;;;1.10;;
23747;SDS011;12054;53.662;10.126;2022-10-16T10:52:16;3.80;;;1.60;;
23747;SDS011;12054;53.662;10.126;2022-10-16T11:09:00;3.45;;;1.10;;
23747;SDS011;12054;53.662;10.126;2022-10-16T11:11:54;5.50;;;1.40;;
23747;SDS011;12054;53.662;10.126;2022-10-16T11:14:23;2.85;;;1.02;;
23747;SDS011;12054;53.662;10.126;2022-10-16T11:17:02;4.20;;;1.23;;
23747;SDS011;12054;53.662;10.126;2022-10-16T11:19:51;2.92;;;0.90;;
23747;SDS011;12054;53.662;10.126;2022-10-16T11:22:23;5.07;;;1.00;;
23747;SDS011;12054;53.662;10.126;2022-10-16T11:27:38;4.57;;;1.10;;
23747;SDS011;12054;53.662;10.126;2022-10-16T11:30:08;3.05;;;1.15;;
23747;SDS011;12054;53.662;10.126;2022-10-16T11:35:22;3.65;;;0.82;;
23747;SDS011;12054;53.662;10.126;2022-10-16T11:38:12;3.08;;;0.90;;
23747;SDS011;12054;53.662;10.126;2022-10-16T11:40:53;1.63;;;0.70;;
23747;SDS011;12054;53.662;10.126;2022-10-16T11:43:41;3.22;;;0.95;;
23747;SDS011;12054;53.662;10.126;2022-10-16T11:46:13;4.72;;;1.00;;
23747;SDS011;12054;53.662;10.126;2022-10-16T11:51:35;2.45;;;0.80;;
23747;SDS011;12054;53.662;10.126;2022-10-16T11:54:07;2.30;;;0.70;;
23747;SDS011;12054;53.662;10.126;2022-10-16T11:56:37;2.63;;;0.70;;
23747;SDS011;12054;53.662;10.126;2022-10-16T11:59:07;1.90;;;0.80;;
23747;SDS011;12054;53.662;10.126;2022-10-16T12:01:43;1.27;;;0.70;;
23747;SDS011;12054;53.662;10.126;2022-10-16T12:04:15;3.08;;;0.80;;
23747;SDS011;12054;53.662;10.126;2022-10-16T12:11:53;8.23;;;2.67;;
23747;SDS011;12054;53.662;10.126;2022-10-16T12:17:00;6.35;;;1.08;;
23747;SDS011;12054;53.662;10.126;2022-10-16T12:19:27;3.25;;;0.57;;
23747;SDS011;12054;53.662;10.126;2022-10-16T12:21:56;4.18;;;1.02;;
23747;SDS011;12054;53.662;10.126;2022-10-16T12:24:39;2.30;;;0.98;;
23747;SDS011;12054;53.662;10.126;2022-10-16T12:27:23;4.35;;;1.10;;
23747;SDS011;12054;53.662;10.126;2022-10-16T12:29:56;3.33;;;1.00;;
23747;SDS011;12054;53.662;10.126;2022-10-16T12:32:31;3.92;;;1.08;;
23747;SDS011;12054;53.662;10.126;2022-10-16T12:34:59;2.97;;;1.13;;
23747;SDS011;12054;53.662;10.126;2022-10-16T12:37:28;3.78;;;0.95;;
23747;SDS011;12054;53.662;10.126;2022-10-16T12:40:14;2.67;;;1.10;;
23747;SDS011;12054;53.662;10.126;2022-10-16T12:42:49;4.13;;;1.00;;
23747;SDS011;12054;53.662;10.126;2022-10-16T12:47:51;3.80;;;0.90;;
23747;SDS011;12054;53.662;10.126;2022-10-16T12:50:26;2.17;;;1.00;;
23747;SDS011;12054;53.662;10.126;2022-10-16T12:53:03;3.67;;;1.33;;
23747;SDS011;12054;53.662;10.126;2022-10-16T12:56:04;2.97;;;1.00;;
23747;SDS011;12054;53.662;10.126;2022-10-16T13:04:11;4.38;;;1.25;;
23747;SDS011;12054;53.662;10.126;2022-10-16T13:09:54;3.42;;;0.98;;
23747;SDS011;12054;53.662;10.126;2022-10-16T13:15:26;4.10;;;0.90;;
23747;SDS011;12054;53.662;10.126;2022-10-16T13:18:15;4.47;;;1.00;;
23747;SDS011;12054;53.662;10.126;2022-10-16T13:20:51;4.75;;;1.00;;
23747;SDS011;12054;53.662;10.126;2022-10-16T13:29:22;3.20;;;0.90;;
23747;SDS011;12054;53.662;10.126;2022-10-16T13:31:54;5.45;;;1.48;;
23747;SDS011;12054;53.662;10.126;2022-10-16T13:34:20;4.22;;;1.10;;
23747;SDS011;12054;53.662;10.126;2022-10-16T13:36:48;2.40;;;0.80;;
23747;SDS011;12054;53.662;10.126;2022-10-16T13:39:20;3.70;;;0.95;;
23747;SDS011;12054;53.662;10.126;2022-10-16T13:44:42;6.00;;;1.25;;
23747;SDS011;12054;53.662;10.126;2022-10-16T13:47:15;6.50;;;1.13;;
23747;SDS011;12054;53.662;10.126;2022-10-16T13:50:01;4.07;;;1.13;;
23747;SDS011;12054;53.662;10.126;2022-10-16T13:52:29;8.02;;;0.90;;
23747;SDS011;12054;53.662;10.126;2022-10-16T13:54:55;5.45;;;1.08;;
23747;SDS011;12054;53.662;10.126;2022-10-16T13:57:22;3.50;;;0.95;;
23747;SDS011;12054;53.662;10.126;2022-10-16T13:59:49;3.30;;;0.90;;
23747;SDS011;12054;53.662;10.126;2022-10-16T14:02:18;5.20;;;1.05;;
23747;SDS011;12054;53.662;10.126;2022-10-16T14:04:47;4.18;;;1.00;;
23747;SDS011;12054;53.662;10.126;2022-10-16T14:07:14;4.25;;;1.00;;
23747;SDS011;12054;53.662;10.126;2022-10-16T14:09:48;6.50;;;1.02;;
23747;SDS011;12054;53.662;10.126;2022-10-16T14:12:15;3.88;;;1.08;;
23747;SDS011;12054;53.662;10.126;2022-10-16T14:14:51;3.08;;;0.98;;
23747;SDS011;12054;53.662;10.126;2022-10-16T14:17:20;4.55;;;0.98;;
23747;SDS011;12054;53.662;10.126;2022-10-16T14:19:49;3.53;;;0.90;;
23747;SDS011;12054;53.662;10.126;2022-10-16T14:22:33;4.65;;;1.08;;
23747;SDS011;12054;53.662;10.126;2022-10-16T14:30:27;3.58;;;0.88;;
23747;SDS011;12054;53.662;10.126;2022-10-16T14:35:32;4.10;;;0.80;;
23747;SDS011;12054;53.662;10.126;2022-10-16T14:38:00;3.67;;;0.90;;
23747;SDS011;12054;53.662;10.126;2022-10-16T14:40:28;5.57;;;1.10;;
23747;SDS011;12054;53.662;10.126;2022-10-16T14:42:58;2.90;;;0.90;;
23747;SDS011;12054;53.662;10.126;2022-10-16T14:45:26;3.22;;;1.13;;
23747;SDS011;12054;53.662;10.126;2022-10-16T14:47:56;4.32;;;1.38;;
23747;SDS011;12054;53.662;10.126;2022-10-16T14:50:23;3.42;;;0.90;;
23747;SDS011;12054;53.662;10.126;2022-10-16T14:52:49;3.78;;;0.90;;
23747;SDS011;12054;53.662;10.126;2022-10-16T14:55:15;5.03;;;1.30;;
23747;SDS011;12054;53.662;10.126;2022-10-16T14:57:42;1.65;;;0.88;;
23747;SDS011;12054;53.662;10.126;2022-10-16T15:00:19;2.20;;;1.15;;
23747;SDS011;12054;53.662;10.126;2022-10-16T15:02:48;4.78;;;1.20;;
23747;SDS011;12054;53.662;10.126;2022-10-16T15:05:16;5.22;;;0.80;;
23747;SDS011;12054;53.662;10.126;2022-10-16T15:07:43;3.10;;;0.90;;
23747;SDS011;12054;53.662;10.126;2022-10-16T15:10:10;4.95;;;1.30;;
23747;SDS011;12054;53.662;10.126;2022-10-16T15:12:37;4.95;;;0.90;;
23747;SDS011;12054;53.662;10.126;2022-10-16T15:15:23;5.05;;;1.20;;
23747;SDS011;12054;53.662;10.126;2022-10-16T15:17:51;3.97;;;0.82;;
23747;SDS011;12054;53.662;10.126;2022-10-16T15:20:24;3.85;;;0.95;;
23747;SDS011;12054;53.662;10.126;2022-10-16T15:22:51;5.95;;;1.00;;
23747;SDS011;12054;53.662;10.126;2022-10-16T15:25:34;4.22;;;1.02;;
23747;SDS011;12054;53.662;10.126;2022-10-16T15:28:06;5.18;;;1.17;;
23747;SDS011;12054;53.662;10.126;2022-10-16T15:30:33;3.33;;;1.00;;
23747;SDS011;12054;53.662;10.126;2022-10-16T15:32:59;4.05;;;1.10;;
23747;SDS011;12054;53.662;10.126;2022-10-16T15:35:25;5.03;;;1.25;;
23747;SDS011;12054;53.662;10.126;2022-10-16T15:37:50;5.72;;;1.20;;
23747;SDS011;12054;53.662;10.126;2022-10-16T15:40:17;5.97;;;1.25;;
23747;SDS011;12054;53.662;10.126;2022-10-16T15:42:44;4.78;;;1.15;;
23747;SDS011;12054;53.662;10.126;2022-10-16T15:45:10;4.70;;;1.25;;
23747;SDS011;12054;53.662;10.126;2022-10-16T15:47:36;4.80;;;1.20;;
23747;SDS011;12054;53.662;10.126;2022-10-16T15:50:02;4.85;;;1.05;;
23747;SDS011;12054;53.662;10.126;2022-10-16T15:52:29;4.15;;;1.00;;
23747;SDS011;12054;53.662;10.126;2022-10-16T15:54:56;4.63;;;0.93;;
23747;SDS011;12054;53.662;10.126;2022-10-16T15:57:22;7.85;;;1.23;;
23747;SDS011;12054;53.662;10.126;2022-10-16T15:59:48;4.45;;;1.40;;
23747;SDS011;12054;53.662;10.126;2022-10-16T16:02:14;6.63;;;1.80;;
23747;SDS011;12054;53.662;10.126;2022-10-16T16:04:40;3.35;;;1.30;;
23747;SDS011;12054;53.662;10.126;2022-10-16T16:07:05;2.90;;;1.50;;
23747;SDS011;12054;53.662;10.126;2022-10-16T16:09:32;5.05;;;1.95;;
23747;SDS011;12054;53.662;10.126;2022-10-16T16:11:58;8.60;;;1.48;;
23747;SDS011;12054;53.662;10.126;2022-10-16T16:14:25;4.57;;;1.67;;
23747;SDS011;12054;53.662;10.126;2022-10-16T16:16:52;5.80;;;2.22;;
23747;SDS011;12054;53.662;10.126;2022-10-16T16:19:21;7.47;;;1.98;;
23747;SDS011;12054;53.662;10.126;2022-10-16T16:21:47;7.68;;;2.10;;
23747;SDS011;12054;53.662;10.126;2022-10-16T16:24:13;6.43;;;1.90;;
23747;SDS011;12054;53.662;10.126;2022-10-16T16:26:39;4.57;;;1.70;;
23747;SDS011;12054;53.662;10.126;2022-10-16T16:29:08;7.95;;;2.65;;
23747;SDS011;12054;53.662;10.126;2022-10-16T16:31:36;6.03;;;1.83;;
23747;SDS011;12054;53.662;10.126;2022-10-16T16:34:02;6.30;;;2.05;;
23747;SDS011;12054;53.662;10.126;2022-10-16T16:36:28;5.25;;;2.00;;
23747;SDS011;12054;53.662;10.126;2022-10-16T16:38:53;5.25;;;1.90;;
23747;SDS011;12054;53.662;10.126;2022-10-16T16:41:26;6.53;;;2.72;;
23747;SDS011;12054;53.662;10.126;2022-10-16T16:43:54;7.07;;;2.10;;
23747;SDS011;12054;53.662;10.126;2022-10-16T16:46:20;6.30;;;1.85;;
23747;SDS011;12054;53.662;10.126;2022-10-16T16:48:46;8.98;;;1.95;;
23747;SDS011;12054;53.662;10.126;2022-10-16T16:51:15;6.25;;;1.92;;